Weather at Camp 14 Heliport

Public forecast

Using degrees Fahrenheit for public forecast. Weather courtesy of forecast.io.

Closest aviation weather report (METAR) to Camp 14 Heliport

Closest report is General William J Fox Airfield, 16.5 nm (30.6 km) NE.

2024/05/25 03:56 (retrieved 1 hour ago)

KWJF 250356Z AUTO 24015KT 10SM CLR 13/08 A2986 RMK AO2 SLP104 T01330078

Closest aviation forecast (TAF) to Camp 14 Heliport

Forecast is more than 12 hours old.

Closest forecast is Edwards Air Force Base, 35.7 nm (66.0 km) NE.

2024/05/24 05:57 (retrieved 23 hours ago)

TAF TAF KEDW 240445Z 2405/2511 22010G15KT 9999 SKC QNH2980INS BECMG 2415/2416 25015G25KT 9999 SKC 510006 QNH2982INS BECMG 2420/2421 23025G35KT 9999 SKC 520006 QNH2977INS BECMG 2502/2503 24015G25KT 9999 SKC QNH2981INS TX26/2421Z TN11/2413Z LAST NO AMDS AFT 2405 NEXT 2813